Shalalth, Canada
Current Conditions -  °F | °C
As of 12:08 AM on Sunday 26 Oct 2014 (Local Time) from CYIN Reporting Station
Light Rain Light Rain  
Wind Chill: -2°   Ceiling: 600
Heat Index:   Visibility: 9mi
Dew Point:   Wind: 9mph
Humidity: 93%   Direction: 320°NW
Pressure: 29.36"   Gusts: NA
Location:  50.73°N, 122.23°W
Report Text: CYIN 260708Z AUTO 32008KT 9SM -RA BKN006 OVC012 02/01 A2936 RMK SLP964
Loading
Personal Weather Stations






























Interactive Weather Map
Tropical Storm Tracking
New forecast layout! Learn more

10-Day Weather Forecast

Advertisements
Track Severe Weather on mobile